Time;durP1;ratioP1;P1;durP2;ratioP2;P2;SDS_P1;SDS_P2;PMS_P1;PMS_P2;Temp;Humidity;BMP_temperature;BMP_pressure;BME280_temperature;BME280_humidity;BME280_pressure;Samples;Min_cycle;Max_cycle;Signal;HPM_P1;HPM_P2
2023/02/11 00:01:21;;;;;;;13.60;9.70;;;;;;;14.28;32.92;102244.31;5112290;28;20484;-67
2023/02/11 00:03:51;;;;;;;14.15;9.93;;;;;;;14.25;32.46;102236.38;5112321;28;20075;-68
2023/02/11 00:06:19;;;;;;;14.98;10.18;;;;;;;14.22;32.88;102236.50;5094337;28;20742;-67
2023/02/11 00:08:48;;;;;;;16.15;10.82;;;;;;;14.19;32.75;102231.28;5112214;28;20778;-68
2023/02/11 00:11:18;;;;;;;16.73;10.20;;;;;;;14.15;32.90;102224.28;5112103;28;20093;-68
2023/02/11 00:13:47;;;;;;;16.05;10.95;;;;;;;14.13;32.60;102228.00;5112296;28;20073;-68
2023/02/11 00:16:17;;;;;;;15.52;10.68;;;;;;;14.06;32.98;102219.31;5112168;28;20514;-68
2023/02/11 00:18:46;;;;;;;14.27;10.52;;;;;;;14.06;32.96;102230.06;5112047;28;20046;-68
2023/02/11 00:21:17;;;;;;;15.05;10.60;;;;;;;14.01;33.15;102218.66;5112186;28;20441;-67
2023/02/11 00:23:47;;;;;;;14.32;10.23;;;;;;;13.98;33.28;102216.09;5112190;28;20098;-67
2023/02/11 00:26:17;;;;;;;16.17;10.45;;;;;;;13.96;32.99;102223.34;5112013;28;20046;-68
2023/02/11 00:28:46;;;;;;;15.95;10.85;;;;;;;13.92;32.96;102219.94;5111981;28;20612;-67
2023/02/11 00:31:16;;;;;;;15.15;11.02;;;;;;;13.89;33.22;102222.72;5111994;28;20081;-67
2023/02/11 00:33:45;;;;;;;14.48;10.02;;;;;;;13.83;33.06;102216.78;5111979;28;20128;-67
2023/02/11 00:36:17;;;;;;;13.50;9.60;;;;;;;13.80;33.39;102211.50;5112188;28;20408;-66
2023/02/11 00:38:46;;;;;;;15.10;9.67;;;;;;;13.80;33.56;102217.78;5111874;28;20055;-67
2023/02/11 00:41:15;;;;;;;16.02;10.85;;;;;;;13.77;33.31;102215.22;5112008;28;20101;-67
2023/02/11 00:43:44;;;;;;;15.25;10.32;;;;;;;13.74;33.50;102220.72;5111887;28;20039;-67
2023/02/11 00:46:13;;;;;;;15.60;10.43;;;;;;;13.70;33.40;102222.66;5111945;28;20115;-67
2023/02/11 00:48:41;;;;;;;17.67;11.35;;;;;;;13.69;33.44;102220.03;5115921;28;20052;-67
2023/02/11 00:51:10;;;;;;;15.18;10.43;;;;;;;13.66;33.36;102225.53;5115927;28;20059;-67
2023/02/11 00:53:39;;;;;;;16.63;10.52;;;;;;;13.60;33.36;102205.19;5115826;28;20496;-66
2023/02/11 00:56:07;;;;;;;15.77;10.48;;;;;;;13.59;33.41;102214.16;5115738;28;20048;-66
2023/02/11 00:58:36;;;;;;;14.48;10.07;;;;;;;13.56;33.89;102205.41;5115773;28;20054;-66
2023/02/11 01:01:05;;;;;;;15.45;10.10;;;;;;;13.52;33.84;102207.34;5115535;28;20046;-66
2023/02/11 01:03:33;;;;;;;14.43;9.95;;;;;;;13.50;33.95;102197.59;5115562;28;20051;-65
2023/02/11 01:06:02;;;;;;;16.02;11.10;;;;;;;13.45;33.74;102190.63;5115543;28;20048;-67
2023/02/11 01:08:30;;;;;;;14.75;9.55;;;;;;;13.45;33.62;102187.06;5115514;28;20047;-66
2023/02/11 01:11:01;;;;;;;15.23;10.57;;;;;;;13.40;33.67;102183.69;5115560;28;20043;-66
2023/02/11 01:13:32;;;;;;;15.05;10.13;;;;;;;13.39;33.48;102190.00;5115331;28;20110;-67
2023/02/11 01:16:00;;;;;;;16.02;10.40;;;;;;;13.35;33.74;102183.91;5115645;28;20054;-67
2023/02/11 01:18:28;;;;;;;15.77;10.57;;;;;;;13.32;33.70;102170.63;5115369;28;20400;-67
2023/02/11 01:20:56;;;;;;;17.05;10.98;;;;;;;13.29;33.46;102170.75;5115433;28;20476;-67
2023/02/11 01:23:25;;;;;;;14.48;10.25;;;;;;;13.26;33.70;102156.59;5115135;28;20075;-67
2023/02/11 01:25:53;;;;;;;15.15;10.18;;;;;;;13.24;34.05;102158.50;5115281;28;20146;-66
2023/02/11 01:28:25;;;;;;;15.15;10.48;;;;;;;13.22;34.17;102163.91;5115150;28;20510;-66
2023/02/11 01:30:55;;;;;;;16.13;11.00;;;;;;;13.18;34.07;102155.06;5115491;28;20075;-66
2023/02/11 01:33:23;;;;;;;15.88;10.82;;;;;;;13.16;33.68;102151.59;5115338;28;20050;-67
2023/02/11 01:35:51;;;;;;;15.45;10.75;;;;;;;13.14;33.91;102157.97;5114985;28;20072;-66
2023/02/11 01:38:22;;;;;;;15.25;10.15;;;;;;;13.09;33.80;102149.22;5115015;28;20043;-66
2023/02/11 01:40:54;;;;;;;16.50;11.05;;;;;;;13.09;33.98;102154.56;5114567;28;20060;-67
2023/02/11 01:43:24;;;;;;;16.15;11.02;;;;;;;13.09;33.62;102160.81;5114774;28;20418;-67
2023/02/11 01:46:13;;;;;;;14.73;9.80;;;;;;;13.10;34.64;102157.19;5114786;28;20040;-66
2023/02/11 01:48:44;;;;;;;14.80;10.68;;;;;;;13.13;34.78;102162.44;5114743;28;20070;-67
2023/02/11 01:51:16;;;;;;;15.02;10.32;;;;;;;13.18;35.06;102160.44;5114613;28;20480;-67
2023/02/11 01:59:38;;;;;;;16.55;9.95;;;;;;;13.54;35.28;102154.53;5113474;28;20071;-67
2023/02/11 02:02:10;;;;;;;14.07;9.75;;;;;;;13.63;35.18;102146.09;5114394;28;20078;-65
2023/02/11 02:04:44;;;;;;;14.40;9.80;;;;;;;13.73;35.24;102150.13;5114335;28;20046;-67
2023/02/11 02:07:19;;;;;;;14.75;10.13;;;;;;;13.84;35.14;102151.47;5114264;28;20108;-67
2023/02/11 02:09:56;;;;;;;15.95;10.57;;;;;;;13.94;35.05;102147.44;5114225;28;20082;-67
2023/02/11 02:12:24;;;;;;;15.35;11.00;;;;;;;14.04;34.91;102149.63;5114122;28;20039;-67
2023/02/11 02:15:17;;;;;;;15.93;10.10;;;;;;;14.14;34.66;102146.53;5114259;28;20100;-67
2023/02/11 02:17:54;;;;;;;16.25;10.50;;;;;;;14.19;34.57;102153.47;5114245;28;20043;-65
2023/02/11 02:21:05;;;;;;;15.85;10.60;;;;;;;14.21;34.60;102148.88;5113974;28;20123;-66
2023/02/11 02:23:46;;;;;;;14.30;9.98;;;;;;;14.21;34.66;102151.56;5048947;28;20051;-66
2023/02/11 02:26:28;;;;;;;14.48;10.35;;;;;;;14.21;34.76;102150.69;5114096;28;20092;-67
2023/02/11 02:29:37;;;;;;;15.43;10.85;;;;;;;14.18;34.48;102149.00;5114017;28;20071;-65
2023/02/11 02:32:32;;;;;;;15.10;10.57;;;;;;;14.16;34.59;102142.84;5073809;28;20476;-67
2023/02/11 02:35:09;;;;;;;15.00;10.55;;;;;;;14.12;34.58;102133.19;5113890;28;20043;-67
2023/02/11 02:37:45;;;;;;;17.30;11.48;;;;;;;14.09;34.58;102133.34;5113994;28;20120;-67
2023/02/11 02:40:18;;;;;;;16.05;11.48;;;;;;;14.04;34.29;102129.97;5113521;28;20055;-66
2023/02/11 02:42:48;;;;;;;17.23;11.93;;;;;;;14.02;34.43;102134.53;5113692;28;20052;-65
2023/02/11 02:45:16;;;;;;;16.25;11.25;;;;;;;13.95;34.33;102133.94;5113638;28;20061;-66
2023/02/11 02:47:48;;;;;;;16.58;11.60;;;;;;;13.93;34.56;102132.28;5113488;28;20156;-66
2023/02/11 02:50:23;;;;;;;17.83;11.55;;;;;;;13.89;34.41;102131.53;5113587;28;20440;-66
2023/02/11 02:52:59;;;;;;;18.23;11.93;;;;;;;13.85;34.63;102139.78;5113534;28;20123;-67
2023/02/11 02:55:42;;;;;;;16.30;11.43;;;;;;;13.80;34.35;102131.06;5113521;28;20124;-67
2023/02/11 02:58:31;;;;;;;16.45;11.68;;;;;;;13.78;34.10;102124.88;5113345;28;20050;-67
2023/02/11 03:01:06;;;;;;;19.10;12.45;;;;;;;13.73;33.79;102131.34;5113354;28;20071;-66
2023/02/11 03:03:45;;;;;;;20.77;14.05;;;;;;;13.68;33.63;102127.97;5113172;28;20075;-66
2023/02/11 03:06:21;;;;;;;18.67;13.48;;;;;;;13.65;33.11;102130.78;5113213;28;20122;-67
2023/02/11 03:08:57;;;;;;;19.73;13.35;;;;;;;13.60;33.23;102130.09;5113155;28;20043;-67
2023/02/11 03:11:27;;;;;;;19.13;13.23;;;;;;;13.57;32.64;102122.22;5113008;28;20047;-66
2023/02/11 03:13:58;;;;;;;20.98;14.65;;;;;;;13.52;32.55;102120.69;5113135;28;20044;-66
2023/02/11 03:16:28;;;;;;;19.73;13.38;;;;;;;13.49;32.46;102116.28;5113033;28;20044;-66
2023/02/11 03:19:03;;;;;;;22.00;15.15;;;;;;;13.47;32.51;102115.50;5113047;28;20040;-67
2023/02/11 03:21:33;;;;;;;19.90;13.70;;;;;;;13.43;32.92;102111.22;5112846;28;20040;-67
2023/02/11 03:24:05;;;;;;;18.83;13.00;;;;;;;13.39;33.09;102101.53;5112971;28;20054;-66
2023/02/11 03:26:39;;;;;;;18.70;12.70;;;;;;;13.35;33.18;102106.19;5112804;28;20044;-66
2023/02/11 03:29:15;;;;;;;17.80;12.35;;;;;;;13.30;33.55;102105.47;5112852;28;20532;-67
2023/02/11 03:31:52;;;;;;;21.88;14.45;;;;;;;13.28;33.56;102106.50;5112709;28;20408;-67
2023/02/11 03:34:29;;;;;;;21.35;14.02;;;;;;;13.23;33.30;102103.16;5112755;28;20043;-66
2023/02/11 03:37:04;;;;;;;19.48;12.95;;;;;;;13.18;34.05;102098.81;5112805;28;20043;-66
2023/02/11 03:39:36;;;;;;;19.25;12.80;;;;;;;13.14;33.53;102094.53;5110267;28;20059;-65
2023/02/11 03:42:11;;;;;;;20.08;13.75;;;;;;;13.11;33.64;102099.13;5112555;28;20039;-66
2023/02/11 03:44:44;;;;;;;21.45;14.52;;;;;;;13.07;34.02;102087.66;5112327;28;20093;-67
2023/02/11 03:47:15;;;;;;;21.35;14.48;;;;;;;13.05;33.80;102077.97;5112550;28;20557;-66
2023/02/11 03:49:49;;;;;;;20.30;13.77;;;;;;;13.01;33.77;102077.19;5112540;28;20043;-67
2023/02/11 03:52:18;;;;;;;22.88;15.18;;;;;;;12.98;33.44;102069.28;5112465;28;20515;-65
2023/02/11 03:54:51;;;;;;;18.60;13.27;;;;;;;12.93;33.56;102071.28;5112399;28;20492;-66
2023/02/11 03:57:19;;;;;;;20.15;13.23;;;;;;;12.91;33.89;102065.13;5112415;28;20055;-66
2023/02/11 03:59:52;;;;;;;20.90;14.77;;;;;;;12.86;33.59;102056.41;5112315;28;20044;-66
2023/02/11 04:02:21;;;;;;;;;;;;;;;12.85;34.37;102065.38;5112687;28;20047;-66
2023/02/11 04:04:50;;;;;;;22.63;14.05;;;;;;;12.79;34.03;102058.47;5112240;28;19920;-66
2023/02/11 04:07:18;;;;;;;20.00;14.23;;;;;;;12.78;34.23;102053.19;5112115;28;20043;-66
2023/02/11 04:09:47;;;;;;;22.23;14.18;;;;;;;12.75;33.96;102047.97;5112154;28;20455;-65
2023/02/11 04:12:15;;;;;;;20.42;12.75;;;;;;;12.71;34.08;102036.47;5112210;28;20043;-65
2023/02/11 04:14:43;;;;;;;20.90;14.68;;;;;;;12.65;34.28;102026.03;5112388;28;20461;-65
2023/02/11 04:17:12;;;;;;;21.05;13.82;;;;;;;12.64;33.99;102037.66;5112182;28;20087;-66
2023/02/11 04:19:41;;;;;;;18.08;13.02;;;;;;;12.64;34.33;102036.78;5112031;28;20046;-66
2023/02/11 04:22:10;;;;;;;21.70;14.40;;;;;;;12.60;34.02;102038.72;5113865;28;20044;-66
2023/02/11 04:24:38;;;;;;;22.92;13.85;;;;;;;12.56;34.46;102038.00;5116424;28;20047;-65
2023/02/11 04:27:06;;;;;;;19.80;13.30;;;;;;;12.52;34.54;102031.00;5116240;28;20381;-66
2023/02/11 04:29:35;;;;;;;18.25;13.32;;;;;;;12.50;34.22;102038.22;5116174;28;20067;-66
2023/02/11 04:32:03;;;;;;;25.20;16.85;;;;;;;12.50;33.41;102032.88;5116285;28;20115;-66
2023/02/11 04:34:32;;;;;;;20.35;13.90;;;;;;;12.51;34.03;102039.09;5116155;28;20058;-67
2023/02/11 04:37:00;;;;;;;19.67;14.20;;;;;;;12.52;34.42;102041.69;5116492;28;20074;-65
2023/02/11 04:39:29;;;;;;;20.50;13.90;;;;;;;12.56;34.70;102038.00;5116002;28;20082;-65
2023/02/11 04:41:58;;;;;;;20.65;13.70;;;;;;;12.63;35.30;102029.69;5116114;28;20065;-66
2023/02/11 04:44:26;;;;;;;19.80;13.65;;;;;;;12.73;35.24;102031.06;5115945;28;20089;-65
2023/02/11 04:46:54;;;;;;;21.75;14.02;;;;;;;12.78;35.25;102027.28;5115858;28;20090;-65
2023/02/11 04:49:22;;;;;;;20.45;13.63;;;;;;;12.93;35.53;102030.22;5116076;28;20400;-65
2023/02/11 04:51:50;;;;;;;20.45;14.00;;;;;;;12.98;35.20;102021.09;5116295;28;20047;-65
2023/02/11 04:54:18;;;;;;;21.73;14.07;;;;;;;13.10;35.20;102023.22;5115910;28;20500;-66
2023/02/11 04:56:49;;;;;;;20.02;13.95;;;;;;;13.21;35.22;102033.53;5116479;28;20089;-65
2023/02/11 04:59:18;;;;;;;21.85;14.25;;;;;;;13.31;35.09;102029.50;5115836;28;20043;-65
2023/02/11 05:01:46;;;;;;;21.10;14.45;;;;;;;13.43;34.90;102039.72;5116265;28;20047;-65
2023/02/11 05:04:14;;;;;;;19.25;13.25;;;;;;;13.53;34.74;102037.50;5115851;28;20105;-65
2023/02/11 05:06:42;;;;;;;20.55;13.93;;;;;;;13.63;34.74;102032.59;5115681;28;20043;-64
2023/02/11 05:09:11;;;;;;;19.50;14.02;;;;;;;13.71;34.74;102036.69;5115593;28;20036;-65
2023/02/11 05:11:40;;;;;;;21.05;13.95;;;;;;;13.83;34.44;102048.66;5115539;28;20545;-65
2023/02/11 05:14:09;;;;;;;19.67;13.85;;;;;;;13.90;34.63;102044.75;5115475;28;20047;-66
2023/02/11 05:16:37;;;;;;;21.83;13.95;;;;;;;14.03;34.23;102047.75;5115398;28;20052;-66
2023/02/11 05:19:06;;;;;;;21.38;14.18;;;;;;;14.12;34.18;102036.59;5115500;28;20097;-66
2023/02/11 05:21:34;;;;;;;20.15;13.93;;;;;;;14.26;33.99;102039.47;5115391;28;20373;-66
2023/02/11 05:24:06;;;;;;;22.17;13.95;;;;;;;14.36;34.08;102045.28;5115394;28;20052;-66
2023/02/11 05:26:34;;;;;;;20.55;13.60;;;;;;;14.44;33.96;102043.09;5115540;28;20046;-66
2023/02/11 05:29:02;;;;;;;20.38;14.27;;;;;;;14.53;33.85;102037.31;5115238;28;20054;-66
2023/02/11 05:31:32;;;;;;;20.60;14.00;;;;;;;14.60;33.86;102029.84;5115433;28;20051;-66
2023/02/11 05:34:02;;;;;;;20.25;13.52;;;;;;;14.67;33.71;102031.31;5115227;28;20047;-66
2023/02/11 05:36:30;;;;;;;22.05;14.00;;;;;;;14.69;33.73;102025.84;5115295;28;20123;-66
2023/02/11 05:39:00;;;;;;;20.25;13.70;;;;;;;14.70;33.59;102020.41;5114706;28;20054;-66
2023/02/11 05:41:28;;;;;;;22.05;13.73;;;;;;;14.73;33.71;102022.06;5115167;28;20046;-66
2023/02/11 05:43:56;;;;;;;20.15;14.20;;;;;;;14.74;33.75;102015.72;5115001;28;20044;-66
2023/02/11 05:46:25;;;;;;;19.50;13.60;;;;;;;14.76;33.56;102017.38;5115218;28;20452;-66
2023/02/11 05:48:55;;;;;;;18.52;14.27;;;;;;;14.78;33.57;102020.88;5114854;28;20050;-66
2023/02/11 05:51:24;;;;;;;20.77;14.07;;;;;;;14.80;33.67;102015.44;5114917;28;20096;-66
2023/02/11 05:53:53;;;;;;;20.02;14.20;;;;;;;14.86;33.68;102012.44;5114748;28;20561;-66
2023/02/11 05:56:21;;;;;;;19.90;14.48;;;;;;;14.91;33.63;102014.91;5114789;28;20043;-67
2023/02/11 05:58:49;;;;;;;21.23;15.32;;;;;;;14.96;33.43;102016.41;5117739;28;20622;-67
2023/02/11 06:01:20;;;;;;;20.85;14.65;;;;;;;15.03;33.56;102016.94;5121237;28;20067;-67
2023/02/11 06:03:50;;;;;;;20.35;13.88;;;;;;;15.09;33.48;102022.03;5120002;28;20096;-67
2023/02/11 06:06:19;;;;;;;22.55;15.55;;;;;;;15.13;33.37;102015.53;5117636;28;20496;-67
2023/02/11 06:08:47;;;;;;;20.98;14.40;;;;;;;15.16;33.38;102021.66;5114482;28;20047;-66
2023/02/11 06:11:16;;;;;;;20.70;14.30;;;;;;;15.23;33.25;102027.56;5114278;28;20036;-67
2023/02/11 06:13:45;;;;;;;21.58;14.43;;;;;;;15.28;33.14;102036.25;5114636;28;20396;-66
2023/02/11 06:16:13;;;;;;;20.90;15.02;;;;;;;15.33;33.18;102026.13;5114490;28;20046;-66
2023/02/11 06:18:41;;;;;;;22.38;15.32;;;;;;;15.39;33.14;102017.75;5114134;28;20043;-67
2023/02/11 06:21:11;;;;;;;20.15;14.52;;;;;;;15.47;33.04;102025.41;5114219;28;20101;-66
2023/02/11 06:23:40;;;;;;;22.27;14.70;;;;;;;15.53;33.03;102013.44;5114078;28;20480;-66
2023/02/11 06:26:15;;;;;;;22.50;15.52;;;;;;;15.58;32.95;102006.88;5114032;28;20039;-66
2023/02/11 06:28:44;;;;;;;22.38;15.52;;;;;;;15.66;32.93;102003.84;5113893;28;20043;-66
2023/02/11 06:31:14;;;;;;;21.05;14.70;;;;;;;15.72;32.79;102003.47;5114145;28;20048;-68
2023/02/11 06:33:43;;;;;;;23.00;15.82;;;;;;;15.75;32.80;101995.28;5113826;28;20044;-66
2023/02/11 06:36:17;;;;;;;21.73;15.32;;;;;;;15.80;32.74;102005.75;5113933;28;20040;-66
2023/02/11 06:38:47;;;;;;;21.88;15.48;;;;;;;15.80;32.73;102005.75;5113855;28;20101;-67
2023/02/11 06:41:18;;;;;;;23.55;15.50;;;;;;;15.78;32.74;102007.69;5093506;28;20052;-65
2023/02/11 06:43:48;;;;;;;23.75;16.10;;;;;;;15.74;32.67;102004.28;5093012;28;20404;-67
2023/02/11 06:46:16;;;;;;;20.88;15.10;;;;;;;15.78;32.70;102002.28;5092751;28;20055;-67
2023/02/11 06:48:45;;;;;;;22.75;16.17;;;;;;;15.77;32.91;101992.50;5093290;28;20071;-67
2023/02/11 06:51:14;;;;;;;23.05;16.20;;;;;;;15.78;32.62;101992.41;5093283;28;20051;-67
2023/02/11 06:53:44;;;;;;;24.05;16.55;;;;;;;15.80;32.76;101995.88;5093262;28;20076;-67
2023/02/11 06:56:16;;;;;;;20.85;15.02;;;;;;;15.85;32.72;101990.25;5093207;28;20046;-67
2023/02/11 06:58:45;;;;;;;21.85;16.17;;;;;;;15.87;32.72;101997.28;5092942;28;20086;-67
2023/02/11 07:01:14;;;;;;;22.70;15.70;;;;;;;15.89;32.53;102000.75;5093060;28;20130;-67
2023/02/11 07:03:44;;;;;;;22.38;15.45;;;;;;;15.88;32.72;101988.25;5093015;28;20094;-67
2023/02/11 07:06:16;;;;;;;22.05;15.93;;;;;;;15.86;32.59;101987.47;5092825;28;20051;-66
2023/02/11 07:08:44;;;;;;;23.85;16.20;;;;;;;15.82;32.66;101983.19;5093152;28;20576;-67
2023/02/11 07:11:15;;;;;;;21.45;16.10;;;;;;;15.77;32.62;101990.66;5092878;28;20058;-66
2023/02/11 07:13:44;;;;;;;23.13;15.95;;;;;;;15.71;32.71;101986.47;5092802;28;20095;-66
2023/02/11 07:16:14;;;;;;;24.42;16.80;;;;;;;15.68;32.73;101994.72;5092762;28;20060;-68
2023/02/11 07:18:44;;;;;;;24.33;16.63;;;;;;;15.62;32.84;101988.78;5092701;28;20072;-66
2023/02/11 07:21:14;;;;;;;23.65;16.48;;;;;;;15.55;32.79;101982.84;5092640;28;20047;-66
2023/02/11 07:23:43;;;;;;;23.98;16.80;;;;;;;15.50;32.82;101986.72;5092510;28;20181;-66
2023/02/11 07:26:15;;;;;;;27.92;20.50;;;;;;;15.43;32.90;101987.03;5092606;28;20039;-67
2023/02/11 07:28:44;;;;;;;22.85;17.40;;;;;;;15.36;32.86;101991.03;5092574;28;20048;-67
2023/02/11 07:31:15;;;;;;;24.33;17.50;;;;;;;15.28;33.04;101987.88;5092569;28;20462;-67
2023/02/11 07:33:44;;;;;;;24.23;17.38;;;;;;;15.25;32.91;101992.53;5092663;28;20052;-66
2023/02/11 07:36:15;;;;;;;23.05;16.52;;;;;;;15.17;32.51;101984.88;5092525;28;20048;-67
2023/02/11 07:38:43;;;;;;;23.20;17.50;;;;;;;15.12;32.79;101981.53;5092324;28;20126;-67
2023/02/11 07:41:15;;;;;;;24.85;18.35;;;;;;;15.07;32.28;101980.94;5112146;28;20496;-67
2023/02/11 07:43:44;;;;;;;24.70;17.38;;;;;;;15.02;32.13;101980.28;5112496;28;20046;-67
2023/02/11 07:46:15;;;;;;;24.77;17.55;;;;;;;14.97;32.24;101979.66;5112643;28;20044;-67
2023/02/11 07:48:43;;;;;;;25.08;17.95;;;;;;;14.89;31.98;101967.50;5112420;28;20373;-67
2023/02/11 07:51:13;;;;;;;26.27;19.15;;;;;;;14.85;32.10;101970.38;5112649;28;20056;-68
2023/02/11 07:53:42;;;;;;;24.05;17.25;;;;;;;14.78;32.04;101972.53;5112435;28;20075;-66
2023/02/11 07:56:12;;;;;;;25.58;17.83;;;;;;;14.72;32.20;101974.66;5111736;28;20475;-68
2023/02/11 07:58:42;;;;;;;24.73;16.90;;;;;;;14.67;32.32;101969.53;5112387;28;20134;-66
2023/02/11 08:01:12;;;;;;;25.35;16.65;;;;;;;14.61;32.41;101969.81;5112421;28;20043;-68
2023/02/11 08:03:43;;;;;;;23.00;16.52;;;;;;;14.54;32.73;101963.88;5112344;28;20107;-66
2023/02/11 08:06:14;;;;;;;25.45;17.73;;;;;;;14.50;32.82;101966.81;5112265;28;20067;-65
2023/02/11 08:08:43;;;;;;;24.27;16.83;;;;;;;14.45;32.70;101963.47;5112286;28;20114;-65
2023/02/11 08:11:13;;;;;;;23.70;16.35;;;;;;;14.40;32.79;101965.50;5112335;28;20527;-66
2023/02/11 08:13:45;;;;;;;27.27;17.02;;;;;;;14.34;33.06;101969.31;5112321;28;20067;-66
2023/02/11 08:16:19;;;;;;;26.98;17.10;;;;;;;14.28;33.14;101962.47;5112132;28;20408;-67
2023/02/11 08:18:48;;;;;;;23.70;16.58;;;;;;;14.26;33.15;101967.00;5112329;28;20404;-64
2023/02/11 08:21:16;;;;;;;25.42;17.33;;;;;;;14.20;33.10;101963.78;5112372;28;20050;-65
2023/02/11 08:23:45;;;;;;;24.80;17.05;;;;;;;14.19;33.34;101967.41;5112195;28;20044;-67
2023/02/11 08:26:15;;;;;;;24.40;16.90;;;;;;;14.16;32.74;101973.75;5112656;28;20411;-67
2023/02/11 08:28:46;;;;;;;24.48;17.38;;;;;;;14.13;32.83;101967.69;5111918;28;20122;-70
2023/02/11 08:31:16;;;;;;;26.75;17.85;;;;;;;14.10;32.69;101968.72;5111989;28;20039;-70
2023/02/11 08:33:45;;;;;;;23.98;16.92;;;;;;;14.03;33.50;101965.44;5112056;28;20054;-70
2023/02/11 08:36:15;;;;;;;23.65;17.15;;;;;;;14.01;33.48;101966.47;5112223;28;20480;-71
2023/02/11 08:38:44;;;;;;;24.95;17.50;;;;;;;13.97;33.47;101964.84;5111876;28;20048;-70
2023/02/11 08:41:13;;;;;;;24.40;17.35;;;;;;;13.91;33.31;101963.34;5111898;28;20526;-71
2023/02/11 08:43:45;;;;;;;27.20;18.00;;;;;;;13.88;33.64;101959.91;5112069;28;20044;-70
2023/02/11 08:46:15;;;;;;;25.08;16.73;;;;;;;13.86;33.80;101959.13;5112036;28;20047;-71
2023/02/11 08:48:45;;;;;;;27.50;16.98;;;;;;;13.82;33.71;101957.53;5111865;28;20490;-71
2023/02/11 08:51:19;;;;;;;25.70;17.15;;;;;;;13.80;33.96;101959.41;5111709;28;20058;-71
2023/02/11 08:53:48;;;;;;;24.25;16.90;;;;;;;13.76;34.15;101953.31;5111886;28;20043;-71
2023/02/11 08:56:18;;;;;;;25.38;17.23;;;;;;;13.74;33.84;101961.44;5112078;28;20051;-71
2023/02/11 08:58:48;;;;;;;25.38;17.95;;;;;;;13.71;33.81;101958.91;5111856;28;20476;-69
2023/02/11 09:01:18;;;;;;;26.50;17.50;;;;;;;13.69;34.05;101947.38;5111774;28;20039;-70
2023/02/11 09:03:50;;;;;;;24.45;16.45;;;;;;;13.67;34.05;101946.56;5111748;28;20078;-71
2023/02/11 09:06:18;;;;;;;23.42;17.30;;;;;;;13.64;34.31;101946.72;5112006;28;20138;-70
2023/02/11 09:08:48;;;;;;;25.73;17.02;;;;;;;13.64;34.32;101953.91;5114221;28;20049;-70
2023/02/11 09:11:18;;;;;;;23.85;16.00;;;;;;;13.59;34.15;101935.31;5115471;28;20499;-71
2023/02/11 09:13:47;;;;;;;24.83;16.45;;;;;;;13.57;34.41;101937.22;5115336;28;20412;-70
2023/02/11 09:16:18;;;;;;;25.58;16.35;;;;;;;13.57;34.27;101936.34;5115341;28;20051;-69
2023/02/11 09:18:47;;;;;;;24.25;16.25;;;;;;;13.57;33.93;101937.22;5115373;28;20529;-69
2023/02/11 09:21:17;;;;;;;21.92;14.85;;;;;;;13.57;33.97;101937.22;5115566;28;20043;-69
2023/02/11 09:23:46;;;;;;;22.60;15.73;;;;;;;13.59;34.35;101938.00;5115460;28;20047;-69
2023/02/11 09:26:16;;;;;;;24.08;15.95;;;;;;;13.67;34.69;101938.53;5115263;28;20040;-68
2023/02/11 09:28:47;;;;;;;24.33;15.73;;;;;;;13.77;34.90;101932.72;5115261;28;20488;-68
2023/02/11 09:31:17;;;;;;;23.38;14.50;;;;;;;13.88;35.51;101925.03;5115379;28;20492;-64
2023/02/11 09:33:48;;;;;;;23.05;14.68;;;;;;;14.06;37.25;101921.50;5115363;28;20040;-64
2023/02/11 09:36:19;;;;;;;23.17;14.90;;;;;;;14.22;37.18;101927.84;5115105;28;20036;-64
2023/02/11 09:38:48;;;;;;;23.67;14.20;;;;;;;14.38;36.90;101917.25;5114825;28;20051;-64
2023/02/11 09:41:42;;;;;;;23.88;14.02;;;;;;;14.63;36.98;101913.34;5115014;28;20075;-64
2023/02/11 09:44:19;;;;;;;23.50;13.57;;;;;;;14.81;36.53;101910.59;5114870;28;20054;-65
2023/02/11 09:46:54;;;;;;;30.30;13.40;;;;;;;14.99;37.05;101910.59;5114611;28;20057;-64
2023/02/11 09:49:29;;;;;;;31.10;14.15;;;;;;;15.17;36.38;101909.63;5114700;28;20054;-67
2023/02/11 09:52:02;;;;;;;25.65;13.65;;;;;;;15.32;36.23;101906.09;5114682;28;20044;-65
2023/02/11 09:54:36;;;;;;;24.75;13.40;;;;;;;15.46;36.30;101908.91;5114654;28;20062;-63
2023/02/11 09:57:06;;;;;;;21.30;13.20;;;;;;;15.59;36.21;101897.47;5114759;28;20066;-63
2023/02/11 09:59:49;;;;;;;29.13;14.85;;;;;;;15.76;36.12;101894.75;5114524;28;20044;-61
2023/02/11 10:02:24;;;;;;;22.23;13.40;;;;;;;15.91;35.83;101896.56;5114518;28;20114;-62
2023/02/11 10:05:12;;;;;;;21.27;12.70;;;;;;;16.09;35.72;101896.50;5114543;28;20089;-64
2023/02/11 10:07:51;;;;;;;24.40;12.45;;;;;;;16.24;35.62;101898.31;5114602;28;20069;-62
2023/02/11 10:10:35;;;;;;;27.73;12.75;;;;;;;16.36;35.62;101892.22;5114473;28;20039;-61
2023/02/11 10:13:22;;;;;;;24.45;12.30;;;;;;;16.53;35.57;101889.41;5114478;28;20128;-62
2023/02/11 10:16:00;;;;;;;24.95;12.63;;;;;;;16.64;35.63;101879.81;5114300;28;20043;-62
2023/02/11 10:18:45;;;;;;;21.77;12.27;;;;;;;16.75;35.38;101890.84;5114231;28;20051;-64
2023/02/11 10:21:25;;;;;;;22.45;10.85;;;;;;;16.80;35.43;101869.88;5113700;28;20381;-60
2023/02/11 10:23:59;;;;;;;22.55;11.40;;;;;;;16.80;35.14;101869.88;5114156;28;20039;-61
2023/02/11 10:26:30;;;;;;;22.08;11.30;;;;;;;16.83;35.28;101875.09;5114037;28;20039;-63
2023/02/11 10:29:02;;;;;;;20.80;11.35;;;;;;;16.88;35.35;101876.50;5114073;28;20088;-64
2023/02/11 10:31:38;;;;;;;20.90;11.48;;;;;;;16.95;35.35;101874.31;5113975;28;20048;-61
2023/02/11 10:34:09;;;;;;;23.58;11.38;;;;;;;17.01;35.19;101868.56;5113960;28;20492;-62
2023/02/11 10:36:40;;;;;;;21.80;11.77;;;;;;;17.05;35.22;101853.94;5114182;28;20104;-61
2023/02/11 10:39:12;;;;;;;20.70;11.77;;;;;;;17.14;35.17;101852.50;5113721;28;20044;-61
2023/02/11 10:41:44;;;;;;;19.80;11.35;;;;;;;17.21;35.33;101852.97;5113819;28;20484;-62
2023/02/11 10:44:24;;;;;;;21.00;11.50;;;;;;;17.31;35.24;101848.75;5113742;28;20071;-62
2023/02/11 10:46:56;;;;;;;20.90;11.45;;;;;;;17.41;35.25;101844.50;5113812;28;20153;-61
2023/02/11 10:49:35;;;;;;;19.95;11.63;;;;;;;17.53;35.12;101838.31;5113428;28;20047;-62
2023/02/11 10:52:14;;;;;;;22.70;10.38;;;;;;;17.65;35.28;101834.81;5113554;28;20096;-60
2023/02/11 10:54:55;;;;;;;17.90;11.18;;;;;;;17.78;34.93;101834.06;5113380;28;20135;-61
2023/02/11 10:57:28;;;;;;;19.95;10.75;;;;;;;17.88;35.20;101829.81;5113373;28;20548;-61
2023/02/11 10:59:59;;;;;;;20.80;10.82;;;;;;;17.94;35.19;101816.75;5097901;28;20071;-62
2023/02/11 11:02:33;;;;;;;49.38;27.77;;;;;;;18.05;35.40;101812.47;5092956;28;20105;-62
2023/02/11 11:05:05;;;;;;;34.65;22.10;;;;;;;18.13;35.01;101813.69;5092807;28;20070;-62
2023/02/11 11:07:34;;;;;;;34.42;19.35;;;;;;;18.26;34.84;101803.81;5092779;28;20051;-63
2023/02/11 11:10:06;;;;;;;37.97;20.33;;;;;;;18.43;34.53;101807.16;5092790;28;20047;-62
2023/02/11 11:12:39;;;;;;;33.55;18.10;;;;;;;18.53;34.53;101802.88;5092844;28;20048;-62
2023/02/11 11:15:20;;;;;;;26.33;15.73;;;;;;;18.59;35.10;101797.91;5092802;28;20056;-63
2023/02/11 11:17:51;;;;;;;44.08;24.58;;;;;;;18.66;34.60;101797.53;5092635;28;20052;-63
2023/02/11 11:20:23;;;;;;;36.75;20.98;;;;;;;18.68;35.44;101796.44;5092626;28;20040;-62
2023/02/11 11:22:54;;;;;;;41.22;24.00;;;;;;;18.70;37.33;101782.81;5092697;28;20071;-62
2023/02/11 11:25:26;;;;;;;33.97;19.85;;;;;;;18.74;37.44;101790.59;5092551;28;20043;-62
2023/02/11 11:27:57;;;;;;;29.60;18.50;;;;;;;18.73;36.59;101778.06;5092583;28;20119;-61
2023/02/11 11:30:32;;;;;;;68.43;31.13;;;;;;;18.75;37.17;101776.13;5092504;28;20044;-61
2023/02/11 11:33:02;;;;;;;49.63;24.75;;;;;;;18.75;36.78;101765.31;5092703;28;20276;-61
2023/02/11 11:35:32;;;;;;;54.20;28.17;;;;;;;18.79;37.33;101766.81;5092480;28;20048;-62